createdAt,value
2019-02-05T00:00:48.091Z,-0.84
2019-02-05T00:02:55.284Z,-0.83
2019-02-05T00:05:02.647Z,-0.87
2019-02-05T00:07:10.462Z,-0.79
2019-02-05T00:09:17.932Z,-0.79
2019-02-05T00:11:25.335Z,-0.89
2019-02-05T00:13:32.801Z,-0.83
2019-02-05T00:15:40.287Z,-0.77
2019-02-05T00:17:47.713Z,-0.88
2019-02-05T00:19:55.079Z,-0.80
2019-02-05T00:22:02.846Z,-0.78
2019-02-05T00:24:10.258Z,-0.80
2019-02-05T00:26:17.831Z,-0.85
2019-02-05T00:28:25.761Z,-0.81
2019-02-05T00:30:33.149Z,-0.88
2019-02-05T00:32:40.462Z,-0.91
2019-02-05T00:34:47.919Z,-0.91
2019-02-05T00:36:55.348Z,-0.84
2019-02-05T00:39:02.708Z,-0.93
2019-02-05T00:41:10.036Z,-0.87
2019-02-05T00:43:17.451Z,-0.84
2019-02-05T00:45:24.864Z,-0.92
2019-02-05T00:47:32.364Z,-0.91
2019-02-05T00:49:40.036Z,-0.93
2019-02-05T00:51:47.470Z,-0.93
2019-02-05T00:53:54.882Z,-0.94
2019-02-05T00:56:02.269Z,-0.88
2019-02-05T00:58:09.606Z,-0.93
2019-02-05T01:00:21.554Z,-0.90
2019-02-05T01:02:29.018Z,-0.85
2019-02-05T01:04:36.362Z,-0.93
2019-02-05T01:06:43.589Z,-0.94
2019-02-05T01:08:50.903Z,-0.86
2019-02-05T01:10:58.380Z,-0.93
2019-02-05T01:13:05.726Z,-0.94
2019-02-05T01:15:15.430Z,-0.96
2019-02-05T01:17:22.801Z,-0.96
2019-02-05T01:19:30.135Z,-0.94
2019-02-05T01:21:37.558Z,-0.93
2019-02-05T01:23:44.887Z,-0.89
2019-02-05T01:25:52.403Z,-0.88
2019-02-05T01:27:59.806Z,-0.91
2019-02-05T01:30:08.425Z,-0.95
2019-02-05T01:32:15.979Z,-0.95
2019-02-05T01:34:23.547Z,-0.93
2019-02-05T01:36:30.902Z,-0.82
2019-02-05T01:38:38.086Z,-0.86
2019-02-05T01:40:45.563Z,-0.81
2019-02-05T01:42:52.974Z,-0.87
2019-02-05T01:45:00.403Z,-0.94
2019-02-05T01:47:07.784Z,-0.95
2019-02-05T01:49:15.572Z,-0.91
2019-02-05T01:51:23.077Z,-0.92
2019-02-05T01:53:30.505Z,-0.95
2019-02-05T01:55:37.955Z,-0.92
2019-02-05T01:57:45.485Z,-0.90
2019-02-05T01:59:52.886Z,-0.96
2019-02-05T02:02:00.315Z,-0.97
2019-02-05T02:04:08.244Z,-0.90
2019-02-05T02:06:15.729Z,-0.95
2019-02-05T02:08:23.276Z,-0.91
2019-02-05T02:10:31.310Z,-0.83
2019-02-05T02:12:38.687Z,-0.92
2019-02-05T02:14:45.786Z,-0.94
2019-02-05T02:16:53.460Z,-0.89
2019-02-05T02:19:00.995Z,-0.82
2019-02-05T02:21:08.462Z,-0.79
2019-02-05T02:23:15.847Z,-0.93
2019-02-05T02:25:23.082Z,-0.88
2019-02-05T02:27:30.330Z,-0.87
2019-02-05T02:29:37.955Z,-0.80
2019-02-05T02:31:45.755Z,-0.94
2019-02-05T02:33:53.165Z,-0.82
2019-02-05T02:36:00.626Z,-0.86
2019-02-05T02:38:08.226Z,-0.92
2019-02-05T02:40:15.636Z,-0.91
2019-02-05T02:42:22.960Z,-0.95
2019-02-05T02:44:30.325Z,-0.85
2019-02-05T02:46:37.825Z,-0.85
2019-02-05T02:48:45.222Z,-0.91
2019-02-05T02:50:52.369Z,-0.92
2019-02-05T02:52:59.965Z,-0.95
2019-02-05T02:55:07.599Z,-0.92
2019-02-05T02:57:15.141Z,-0.96
2019-02-05T02:59:22.859Z,-0.97
2019-02-05T03:01:30.317Z,-0.91
2019-02-05T03:03:37.801Z,-0.94
2019-02-05T03:05:45.325Z,-0.91
2019-02-05T03:07:52.947Z,-0.99
2019-02-05T03:10:00.349Z,-0.97
2019-02-05T03:12:07.748Z,-0.96
2019-02-05T03:14:15.835Z,-0.91
2019-02-05T03:16:25.400Z,-0.91
2019-02-05T03:18:32.872Z,-0.90
2019-02-05T03:20:40.273Z,-0.92
2019-02-05T03:22:47.702Z,-0.94
2019-02-05T03:24:55.579Z,-0.95
2019-02-05T03:27:03.134Z,-0.95
2019-02-05T03:29:10.539Z,-0.94
2019-02-05T03:31:18.021Z,-0.98
2019-02-05T03:33:25.302Z,-0.98
2019-02-05T03:35:32.773Z,-0.97
2019-02-05T03:37:40.097Z,-0.96
2019-02-05T03:39:47.346Z,-0.91
2019-02-05T03:41:54.828Z,-0.99
2019-02-05T03:44:02.096Z,-0.96
2019-02-05T03:46:13.733Z,-0.99
2019-02-05T03:48:21.163Z,-0.98
2019-02-05T03:50:28.590Z,-0.98
2019-02-05T03:52:50.641Z,-0.97
2019-02-05T03:55:49.317Z,-0.96
2019-02-05T03:58:54.717Z,-0.99
2019-02-05T04:02:18.773Z,-0.97
2019-02-05T04:05:38.057Z,-0.96
2019-02-05T04:08:19.987Z,-1.01
2019-02-05T04:11:07.783Z,-0.99
2019-02-05T04:13:53.623Z,-0.93
2019-02-05T04:16:53.973Z,-0.92
2019-02-05T04:19:56.007Z,-0.99
2019-02-05T04:22:51.288Z,-1.02
2019-02-05T04:25:54.566Z,-0.95
2019-02-05T04:28:59.840Z,-1.00
2019-02-05T04:31:56.071Z,-0.99
2019-02-05T04:35:27.153Z,-0.97
2019-02-05T04:38:20.954Z,-0.98
2019-02-05T04:41:20.438Z,-0.96
2019-02-05T04:44:25.427Z,-0.97
2019-02-05T04:47:13.488Z,-0.99
2019-02-05T04:49:53.279Z,-0.97
2019-02-05T04:52:58.071Z,-1.01
2019-02-05T04:55:48.014Z,-0.97
2019-02-05T04:58:34.682Z,-1.00
2019-02-05T05:01:22.878Z,-1.01
2019-02-05T05:04:32.110Z,-0.99
2019-02-05T05:07:36.518Z,-1.00
2019-02-05T05:09:59.032Z,-1.04
2019-02-05T05:12:06.114Z,-1.05
2019-02-05T05:14:13.226Z,-1.03
2019-02-05T05:16:21.170Z,-0.97
2019-02-05T05:18:28.207Z,-1.05
2019-02-05T05:20:35.257Z,-1.03
2019-02-05T05:22:42.300Z,-1.02
2019-02-05T05:24:49.369Z,-1.02
2019-02-05T05:26:56.435Z,-1.04
2019-02-05T05:29:04.429Z,-1.05
2019-02-05T05:31:11.464Z,-1.06
2019-02-05T05:33:18.776Z,-1.06
2019-02-05T05:35:25.939Z,-1.06
2019-02-05T05:37:32.929Z,-1.07
2019-02-05T05:39:39.838Z,-1.07
2019-02-05T05:41:46.840Z,-1.09
2019-02-05T05:43:53.884Z,-1.07
2019-02-05T05:46:00.958Z,-1.04
2019-02-05T05:48:08.037Z,-1.04
2019-02-05T05:50:16.710Z,-1.08
2019-02-05T05:52:23.729Z,-1.07
2019-02-05T05:54:30.777Z,-1.10
2019-02-05T05:56:37.793Z,-1.07
2019-02-05T05:58:44.932Z,-1.08
2019-02-05T06:00:51.982Z,-1.08
2019-02-05T06:02:59.281Z,-1.10
2019-02-05T06:05:07.526Z,-1.13
2019-02-05T06:07:14.659Z,-1.14
2019-02-05T06:09:21.834Z,-1.13
2019-02-05T06:11:28.887Z,-1.13
2019-02-05T06:13:35.844Z,-1.12
2019-02-05T06:15:42.861Z,-1.13
2019-02-05T06:17:49.898Z,-1.14
2019-02-05T06:19:56.995Z,-1.16
2019-02-05T06:22:03.959Z,-1.15
2019-02-05T06:24:11.017Z,-1.14
2019-02-05T06:26:20.216Z,-1.14
2019-02-05T06:28:34.343Z,-1.13
2019-02-05T06:30:35.750Z,-1.12
2019-02-05T06:32:42.834Z,-1.11
2019-02-05T06:34:49.918Z,-1.06
2019-02-05T06:36:56.952Z,-1.10
2019-02-05T06:39:05.464Z,-1.08
2019-02-05T06:41:12.549Z,-1.12
2019-02-05T06:43:20.061Z,-1.07
2019-02-05T06:45:27.024Z,-1.08
2019-02-05T06:47:34.201Z,-1.06
2019-02-05T06:49:41.247Z,-1.08
2019-02-05T06:51:48.309Z,-1.05
2019-02-05T06:53:55.676Z,-1.06
2019-02-05T06:56:02.910Z,-1.04
2019-02-05T06:58:09.980Z,-1.06
2019-02-05T07:00:20.806Z,-1.06
2019-02-05T07:02:27.885Z,-1.06
2019-02-05T07:04:34.940Z,-1.04
2019-02-05T07:06:41.994Z,-1.03
2019-02-05T07:08:49.115Z,-1.03
2019-02-05T07:10:56.673Z,-0.99
2019-02-05T07:13:03.743Z,-1.00
2019-02-05T07:15:11.552Z,-0.98
2019-02-05T07:17:18.974Z,-0.99
2019-02-05T07:19:26.360Z,-0.98
2019-02-05T07:21:33.687Z,-0.98
2019-02-05T07:23:41.174Z,-0.98
2019-02-05T07:25:48.563Z,-0.97
2019-02-05T07:27:55.817Z,-0.98
2019-02-05T07:30:02.938Z,-0.96
2019-02-05T07:32:10.040Z,-0.97
2019-02-05T07:34:17.149Z,-0.97
2019-02-05T07:36:24.759Z,-0.98
2019-02-05T07:38:32.325Z,-0.96
2019-02-05T07:40:39.597Z,-0.95
2019-02-05T07:42:46.746Z,-0.94
2019-02-05T07:44:53.911Z,-0.92
2019-02-05T07:47:01.243Z,-0.91
2019-02-05T07:49:08.382Z,-0.92
2019-02-05T07:51:15.503Z,-0.89
2019-02-05T07:53:23.087Z,-0.91
2019-02-05T07:55:30.675Z,-0.90
2019-02-05T07:57:38.031Z,-0.90
2019-02-05T07:59:47.194Z,-0.90
2019-02-05T08:01:54.976Z,-0.87
2019-02-05T08:04:02.474Z,-0.89
2019-02-05T08:06:10.263Z,-0.87
2019-02-05T08:08:17.748Z,-0.82
2019-02-05T08:10:25.226Z,-0.81
2019-02-05T08:12:32.882Z,-0.82
2019-02-05T08:14:40.321Z,-0.81
2019-02-05T08:16:48.183Z,-0.80
2019-02-05T08:18:55.722Z,-0.79
2019-02-05T08:21:03.212Z,-0.79
2019-02-05T08:23:10.695Z,-0.77
2019-02-05T08:25:18.455Z,-0.75
2019-02-05T08:27:25.893Z,-0.77
2019-02-05T08:29:33.285Z,-0.76
2019-02-05T08:31:40.769Z,-0.79
2019-02-05T08:33:48.275Z,-0.77
2019-02-05T08:35:55.690Z,-0.77
2019-02-05T08:38:03.708Z,-0.77
2019-02-05T08:40:14.707Z,-0.76
2019-02-05T08:42:22.173Z,-0.74
2019-02-05T08:44:29.723Z,-0.78
2019-02-05T08:46:37.132Z,-0.74
2019-02-05T08:48:44.910Z,-0.76
2019-02-05T08:50:52.656Z,-0.74
2019-02-05T08:52:59.947Z,-0.77
2019-02-05T08:55:09.391Z,-0.77
2019-02-05T08:57:17.138Z,-0.76
2019-02-05T08:59:24.659Z,-0.76
2019-02-05T09:01:32.127Z,-0.77
2019-02-05T09:03:39.667Z,-0.77
2019-02-05T09:05:47.105Z,-0.77
2019-02-05T09:07:54.661Z,-0.77
2019-02-05T09:10:02.174Z,-0.74
2019-02-05T09:12:09.680Z,-0.77
2019-02-05T09:14:17.137Z,-0.75
2019-02-05T09:16:24.645Z,-0.75
2019-02-05T09:18:32.292Z,-0.73
2019-02-05T09:20:39.828Z,-0.72
2019-02-05T09:22:47.363Z,-0.75
2019-02-05T09:24:54.965Z,-0.74
2019-02-05T09:27:02.444Z,-0.73
2019-02-05T09:29:10.076Z,-0.73
2019-02-05T09:31:18.002Z,-0.75
2019-02-05T09:33:25.351Z,-0.75
2019-02-05T09:35:32.798Z,-0.71
2019-02-05T09:37:40.414Z,-0.71
2019-02-05T09:39:47.782Z,-0.69
2019-02-05T09:41:55.270Z,-0.69
2019-02-05T09:44:02.992Z,-0.70
2019-02-05T09:46:10.358Z,-0.69
2019-02-05T09:48:17.722Z,-0.67
2019-02-05T09:50:25.218Z,-0.67
2019-02-05T09:52:32.773Z,-0.65
2019-02-05T09:54:40.170Z,-0.64
2019-02-05T09:56:47.978Z,-0.63
2019-02-05T09:58:55.447Z,-0.61
2019-02-05T10:01:03.046Z,-0.59
2019-02-05T10:03:10.885Z,-0.58
2019-02-05T10:05:19.373Z,-0.55
2019-02-05T10:07:26.843Z,-0.55
2019-02-05T10:09:34.520Z,-0.51
2019-02-05T10:11:41.912Z,-0.48
2019-02-05T10:13:49.299Z,-0.44
2019-02-05T10:15:56.903Z,-0.42
2019-02-05T10:18:04.377Z,-0.42
2019-02-05T10:20:12.172Z,-0.38
2019-02-05T10:22:19.850Z,-0.37
2019-02-05T10:24:27.305Z,-0.34
2019-02-05T10:26:34.674Z,-0.31
2019-02-05T10:28:42.047Z,-0.31
2019-02-05T10:30:49.445Z,-0.27
2019-02-05T10:32:57.047Z,-0.24
2019-02-05T10:35:04.548Z,-0.22
2019-02-05T10:37:12.023Z,-0.23
2019-02-05T10:39:19.456Z,-0.23
2019-02-05T10:41:26.973Z,-0.23
2019-02-05T10:43:34.391Z,-0.22
2019-02-05T10:45:41.894Z,-0.17
2019-02-05T10:47:49.391Z,-0.11
2019-02-05T10:49:56.723Z,-0.12
2019-02-05T10:52:04.139Z,-0.09
2019-02-05T10:54:11.763Z,-0.04
2019-02-05T10:56:19.219Z,-0.07
2019-02-05T10:58:26.551Z,-0.06
2019-02-05T11:00:34.088Z,0.02
2019-02-05T11:02:41.536Z,0.01
2019-02-05T11:04:49.112Z,0.07
2019-02-05T11:06:56.973Z,0.08
2019-02-05T11:09:04.660Z,0.18
2019-02-05T11:11:12.167Z,0.10
2019-02-05T11:13:19.751Z,0.11
2019-02-05T11:15:32.545Z,0.13
2019-02-05T11:17:40.428Z,0.13
2019-02-05T11:19:47.483Z,0.20
2019-02-05T11:21:54.544Z,0.20
2019-02-05T11:24:01.899Z,0.27
2019-02-05T11:26:09.552Z,0.36
2019-02-05T11:28:17.307Z,0.36
2019-02-05T11:30:31.780Z,0.39
2019-02-05T11:32:39.130Z,0.41
2019-02-05T11:34:46.577Z,0.43
2019-02-05T11:36:54.054Z,0.43
2019-02-05T11:39:01.628Z,0.43
2019-02-05T11:41:09.252Z,0.42
2019-02-05T11:43:17.073Z,0.43
2019-02-05T11:45:24.480Z,0.40
2019-02-05T11:47:32.347Z,0.43
2019-02-05T11:49:40.314Z,0.40
2019-02-05T11:51:47.916Z,0.40
2019-02-05T11:53:55.903Z,0.45
2019-02-05T11:56:03.655Z,0.45
2019-02-05T11:58:12.454Z,0.47
2019-02-05T12:00:33.207Z,0.44
2019-02-05T12:02:41.335Z,0.50
2019-02-05T12:04:48.785Z,0.46
2019-02-05T12:06:56.439Z,0.46
2019-02-05T12:09:04.473Z,0.48
2019-02-05T12:11:11.970Z,0.50
2019-02-05T12:13:19.583Z,0.52
2019-02-05T12:15:27.345Z,0.49
2019-02-05T12:17:34.617Z,0.50
2019-02-05T12:19:42.238Z,0.53
2019-02-05T12:21:49.755Z,0.50
2019-02-05T12:23:57.263Z,0.51
2019-02-05T12:26:05.004Z,0.52
2019-02-05T12:28:12.299Z,0.53
2019-02-05T12:30:26.463Z,0.55
2019-02-05T12:32:33.989Z,0.56
2019-02-05T12:34:41.628Z,0.57
2019-02-05T12:36:49.277Z,0.57
2019-02-05T12:38:56.820Z,0.58
2019-02-05T12:41:04.344Z,0.57
2019-02-05T12:43:11.859Z,0.57
2019-02-05T12:45:22.511Z,0.56
2019-02-05T12:47:30.276Z,0.53
2019-02-05T12:49:37.785Z,0.54
2019-02-05T12:51:45.804Z,0.56
2019-02-05T12:53:53.837Z,0.55
2019-02-05T12:56:01.284Z,0.55
2019-02-05T12:58:08.852Z,0.56
2019-02-05T13:00:24.444Z,0.58
2019-02-05T13:02:31.646Z,0.61
2019-02-05T13:04:39.007Z,0.67
2019-02-05T13:06:46.142Z,0.68
2019-02-05T13:08:53.323Z,0.71
2019-02-05T13:11:00.639Z,0.74
2019-02-05T13:13:09.161Z,0.73
2019-02-05T13:15:16.320Z,0.71
2019-02-05T13:17:23.481Z,0.71
2019-02-05T13:19:30.647Z,0.69
2019-02-05T13:21:37.838Z,0.71
2019-02-05T13:23:45.497Z,0.72
2019-02-05T13:25:53.648Z,0.73
2019-02-05T13:28:02.210Z,0.76
2019-02-05T13:30:14.438Z,0.75
2019-02-05T13:32:22.610Z,0.75
2019-02-05T13:34:30.452Z,0.74
2019-02-05T13:36:37.653Z,0.76
2019-02-05T13:38:44.752Z,0.77
2019-02-05T13:40:52.086Z,0.81
2019-02-05T13:43:00.918Z,0.79
2019-02-05T13:45:09.044Z,0.79
2019-02-05T13:47:16.582Z,0.77
2019-02-05T13:49:24.030Z,0.81
2019-02-05T13:51:31.410Z,0.78
2019-02-05T13:53:39.425Z,0.77
2019-02-05T13:55:47.001Z,0.74
2019-02-05T13:57:54.198Z,0.74
2019-02-05T14:00:01.702Z,0.73
2019-02-05T14:02:09.156Z,0.74
2019-02-05T14:04:17.272Z,0.74
2019-02-05T14:06:24.367Z,0.77
2019-02-05T14:08:32.464Z,0.76
2019-02-05T14:10:39.974Z,0.77
2019-02-05T14:12:47.439Z,0.75
2019-02-05T14:14:54.514Z,0.75
2019-02-05T14:17:01.611Z,0.75
2019-02-05T14:19:08.712Z,0.72
2019-02-05T14:21:15.796Z,0.72
2019-02-05T14:23:23.168Z,0.71
2019-02-05T14:25:30.608Z,0.71
2019-02-05T14:27:38.019Z,0.72
2019-02-05T14:29:45.548Z,0.73
2019-02-05T14:31:53.170Z,0.71
2019-02-05T14:34:00.577Z,0.71
2019-02-05T14:36:08.321Z,0.73
2019-02-05T14:38:15.810Z,0.72
2019-02-05T14:40:23.239Z,0.73
2019-02-05T14:42:30.683Z,0.76
2019-02-05T14:44:37.966Z,0.75
2019-02-05T14:46:45.417Z,0.75
2019-02-05T14:48:52.912Z,0.76
2019-02-05T14:51:00.358Z,0.77
2019-02-05T14:53:08.748Z,0.78
2019-02-05T14:55:16.239Z,0.75
2019-02-05T14:57:23.496Z,0.75
2019-02-05T14:59:30.655Z,0.76
2019-02-05T15:01:43.337Z,0.74
2019-02-05T15:03:46.608Z,0.71
2019-02-05T15:05:53.864Z,0.72
2019-02-05T15:08:01.156Z,0.71
2019-02-05T15:10:10.398Z,0.70
2019-02-05T15:12:18.026Z,0.67
2019-02-05T15:14:25.327Z,0.69
2019-02-05T15:16:34.195Z,0.69
2019-02-05T15:18:41.755Z,0.69
2019-02-05T15:20:50.678Z,0.69
2019-02-05T15:22:58.145Z,0.68
2019-02-05T15:25:05.734Z,0.69
2019-02-05T15:27:12.822Z,0.68
2019-02-05T15:29:19.955Z,0.68
2019-02-05T15:31:27.080Z,0.66
2019-02-05T15:34:05.875Z,0.62
2019-02-05T15:36:24.867Z,0.64
2019-02-05T15:38:32.199Z,0.62
2019-02-05T15:40:39.678Z,0.61
2019-02-05T15:42:47.513Z,0.60
2019-02-05T15:44:54.911Z,0.59
2019-02-05T15:47:02.333Z,0.58
2019-02-05T15:49:09.824Z,0.58
2019-02-05T15:51:17.295Z,0.55
2019-02-05T15:53:24.869Z,0.55
2019-02-05T15:55:32.415Z,0.55
2019-02-05T15:57:40.184Z,0.55
2019-02-05T15:59:47.724Z,0.54
2019-02-05T16:02:05.607Z,0.52
2019-02-05T16:04:04.573Z,0.51
2019-02-05T16:06:12.161Z,0.51
2019-02-05T16:08:19.613Z,0.48
2019-02-05T16:10:47.775Z,0.46
2019-02-05T16:12:54.871Z,0.44
2019-02-05T16:15:01.949Z,0.40
2019-02-05T16:17:09.132Z,0.40
2019-02-05T16:19:16.192Z,0.39
2019-02-05T16:21:23.551Z,0.38
2019-02-05T16:23:30.875Z,0.38
2019-02-05T16:25:38.029Z,0.37
2019-02-05T16:27:45.290Z,0.39
2019-02-05T16:29:52.698Z,0.38
2019-02-05T16:31:59.791Z,0.38
2019-02-05T16:34:06.883Z,0.37
2019-02-05T16:36:14.174Z,0.35
2019-02-05T16:38:21.417Z,0.34
2019-02-05T16:40:29.842Z,0.35
2019-02-05T16:42:36.862Z,0.36
2019-02-05T16:44:44.317Z,0.35
2019-02-05T16:46:51.804Z,0.32
2019-02-05T16:48:59.327Z,0.27
2019-02-05T16:51:07.025Z,0.27
2019-02-05T16:53:13.913Z,0.25
2019-02-05T16:55:21.003Z,0.25
2019-02-05T16:57:28.601Z,0.20
2019-02-05T16:59:35.694Z,0.21
2019-02-05T17:01:43.045Z,0.19
2019-02-05T17:03:50.278Z,0.20
2019-02-05T17:05:57.576Z,0.13
2019-02-05T17:08:04.975Z,0.11
2019-02-05T17:10:13.889Z,0.14
2019-02-05T17:12:21.344Z,0.13
2019-02-05T17:14:39.686Z,0.10
2019-02-05T17:16:47.198Z,0.09
2019-02-05T17:18:54.659Z,0.07
2019-02-05T17:21:01.946Z,0.08
2019-02-05T17:23:09.157Z,0.07
2019-02-05T17:25:18.112Z,0.06
2019-02-05T17:27:25.194Z,0.05
2019-02-05T17:29:32.403Z,0.05
2019-02-05T17:31:39.607Z,0.04
2019-02-05T17:33:46.974Z,0.05
2019-02-05T17:35:54.141Z,0.10
2019-02-05T17:38:01.532Z,0.04
2019-02-05T17:40:11.527Z,0.10
2019-02-05T17:42:19.088Z,0.10
2019-02-05T17:44:26.804Z,0.05
2019-02-05T17:46:34.034Z,0.09
2019-02-05T17:48:41.291Z,0.08
2019-02-05T17:50:48.638Z,0.11
2019-02-05T17:52:55.845Z,0.10
2019-02-05T17:55:03.453Z,0.07
2019-02-05T17:57:10.946Z,0.03
2019-02-05T17:59:18.261Z,0.04
2019-02-05T18:01:27.709Z,0.06
2019-02-05T18:03:35.066Z,0.06
2019-02-05T18:05:42.529Z,0.04
2019-02-05T18:07:49.765Z,-0.01
2019-02-05T18:09:57.009Z,-0.01
2019-02-05T18:12:04.303Z,-0.04
2019-02-05T18:14:11.586Z,-0.01
2019-02-05T18:16:22.441Z,-0.01
2019-02-05T18:18:29.906Z,-0.04
2019-02-05T18:20:37.138Z,-0.05
2019-02-05T18:22:44.341Z,-0.05
2019-02-05T18:24:51.959Z,-0.06
2019-02-05T18:26:59.516Z,-0.09
2019-02-05T18:29:07.197Z,-0.09
2019-02-05T18:31:14.389Z,-0.16
2019-02-05T18:33:21.744Z,-0.11
2019-02-05T18:35:29.065Z,-0.12
2019-02-05T18:37:36.230Z,-0.18
2019-02-05T18:39:43.725Z,-0.19
2019-02-05T18:41:51.505Z,-0.23
2019-02-05T18:43:59.143Z,-0.22
2019-02-05T18:46:06.676Z,-0.25
2019-02-05T18:48:14.576Z,-0.25
2019-02-05T18:50:26.814Z,-0.33
2019-02-05T18:52:35.540Z,-0.33
2019-02-05T18:54:43.597Z,-0.34
2019-02-05T18:56:51.175Z,-0.37
2019-02-05T18:58:58.866Z,-0.36
2019-02-05T19:01:07.195Z,-0.41
2019-02-05T19:03:16.291Z,-0.38
2019-02-05T19:05:24.379Z,-0.37
2019-02-05T19:07:32.089Z,-0.41
2019-02-05T19:09:40.389Z,-0.42
2019-02-05T19:11:48.076Z,-0.39
2019-02-05T19:13:55.692Z,-0.39
2019-02-05T19:16:03.507Z,-0.40
2019-02-05T19:18:11.451Z,-0.46
2019-02-05T19:20:19.781Z,-0.38
2019-02-05T19:22:27.330Z,-0.44
2019-02-05T19:24:50.940Z,-0.45
2019-02-05T19:26:58.615Z,-0.43
2019-02-05T19:29:06.389Z,-0.46
2019-02-05T19:31:29.745Z,-0.58
2019-02-05T19:33:37.286Z,-0.53
2019-02-05T19:35:44.664Z,-0.58
2019-02-05T19:37:52.358Z,-0.54
2019-02-05T19:39:59.913Z,-0.51
2019-02-05T19:42:09.183Z,-0.51
2019-02-05T19:44:16.947Z,-0.55
2019-02-05T19:46:59.006Z,-0.51
2019-02-05T19:49:22.261Z,-0.48
2019-02-05T19:51:30.047Z,-0.44
2019-02-05T19:53:37.759Z,-0.51
2019-02-05T19:55:45.982Z,-0.43
2019-02-05T19:57:53.816Z,-0.47
2019-02-05T20:00:01.739Z,-0.46
2019-02-05T20:02:09.200Z,-0.46
2019-02-05T20:04:16.895Z,-0.51
2019-02-05T20:06:24.435Z,-0.48
2019-02-05T20:08:32.042Z,-0.45
2019-02-05T20:10:39.720Z,-0.46
2019-02-05T20:12:47.241Z,-0.54
2019-02-05T20:14:54.912Z,-0.48
2019-02-05T20:17:02.883Z,-0.50
2019-02-05T20:19:10.524Z,-0.57
2019-02-05T20:21:18.163Z,-0.51
2019-02-05T20:23:26.143Z,-0.50
2019-02-05T20:25:33.995Z,-0.47
2019-02-05T20:27:41.572Z,-0.43
2019-02-05T20:29:50.283Z,-0.39
2019-02-05T20:31:57.805Z,-0.39
2019-02-05T20:34:05.563Z,-0.40
2019-02-05T20:36:13.384Z,-0.43
2019-02-05T20:38:21.589Z,-0.38
2019-02-05T20:40:28.920Z,-0.42
2019-02-05T20:42:36.458Z,-0.37
2019-02-05T20:44:44.201Z,-0.39
2019-02-05T20:46:56.899Z,-0.34
2019-02-05T20:49:01.589Z,-0.33
2019-02-05T20:51:09.379Z,-0.33
2019-02-05T20:53:16.832Z,-0.29
2019-02-05T20:55:24.092Z,-0.33
2019-02-05T20:57:31.952Z,-0.30
2019-02-05T20:59:39.689Z,-0.30
2019-02-05T21:01:47.306Z,-0.30
2019-02-05T21:04:01.194Z,-0.30
2019-02-05T21:06:04.037Z,-0.28
2019-02-05T21:08:11.767Z,-0.30
2019-02-05T21:10:23.543Z,-0.29
2019-02-05T21:12:31.024Z,-0.29
2019-02-05T21:14:38.652Z,-0.31
2019-02-05T21:16:46.423Z,-0.30
2019-02-05T21:18:54.213Z,-0.29
2019-02-05T21:21:01.941Z,-0.28
2019-02-05T21:23:09.708Z,-0.32
2019-02-05T21:25:18.523Z,-0.32
2019-02-05T21:27:26.067Z,-0.27
2019-02-05T21:29:33.737Z,-0.30
2019-02-05T21:31:41.363Z,-0.31
2019-02-05T21:33:48.751Z,-0.32
2019-02-05T21:35:56.409Z,-0.31
2019-02-05T21:38:03.965Z,-0.29
2019-02-05T21:40:16.297Z,-0.32
2019-02-05T21:42:23.957Z,-0.32
2019-02-05T21:44:31.866Z,-0.30
2019-02-05T21:46:39.331Z,-0.29
2019-02-05T21:48:47.218Z,-0.30
2019-02-05T21:50:55.000Z,-0.31
2019-02-05T21:53:02.598Z,-0.26
2019-02-05T21:55:11.822Z,-0.26
2019-02-05T21:57:19.259Z,-0.30
2019-02-05T21:59:26.871Z,-0.30
2019-02-05T22:01:34.419Z,-0.30
2019-02-05T22:03:41.970Z,-0.29
2019-02-05T22:05:49.417Z,-0.28
2019-02-05T22:07:56.961Z,-0.28
2019-02-05T22:10:04.492Z,-0.31
2019-02-05T22:12:11.954Z,-0.32
2019-02-05T22:14:19.729Z,-0.31
2019-02-05T22:16:27.150Z,-0.31
2019-02-05T22:18:34.537Z,-0.32
2019-02-05T22:20:42.391Z,-0.27
2019-02-05T22:22:50.336Z,-0.29
2019-02-05T22:24:58.038Z,-0.29
2019-02-05T22:27:05.539Z,-0.29
2019-02-05T22:29:13.035Z,-0.32
2019-02-05T22:31:20.526Z,-0.30
2019-02-05T22:33:28.313Z,-0.28
2019-02-05T22:35:37.324Z,-0.29
2019-02-05T22:37:44.841Z,-0.29
2019-02-05T22:39:52.436Z,-0.28
2019-02-05T22:41:59.954Z,-0.22
2019-02-05T22:44:07.471Z,-0.22
2019-02-05T22:46:15.099Z,-0.23
2019-02-05T22:48:22.653Z,-0.21
2019-02-05T22:50:32.324Z,-0.22
2019-02-05T22:52:39.652Z,-0.21
2019-02-05T22:54:47.223Z,-0.22
2019-02-05T22:56:54.732Z,-0.20
2019-02-05T22:59:02.771Z,-0.18
2019-02-05T23:01:53.430Z,-0.16
2019-02-05T23:05:06.244Z,-0.18
2019-02-05T23:07:20.721Z,-0.17
2019-02-05T23:09:49.706Z,-0.18
2019-02-05T23:12:38.913Z,-0.16
2019-02-05T23:14:49.121Z,-0.17
2019-02-05T23:16:56.610Z,-0.16
2019-02-05T23:19:04.707Z,-0.17
2019-02-05T23:21:12.082Z,-0.17
2019-02-05T23:23:19.365Z,-0.17
2019-02-05T23:25:26.575Z,-0.18
2019-02-05T23:27:34.303Z,-0.17
2019-02-05T23:29:41.937Z,-0.17
2019-02-05T23:31:49.559Z,-0.15
2019-02-05T23:33:57.377Z,-0.13
2019-02-05T23:36:04.949Z,-0.14
2019-02-05T23:38:12.473Z,-0.16
2019-02-05T23:40:19.641Z,-0.12
2019-02-05T23:42:26.988Z,-0.13
2019-02-05T23:44:34.409Z,-0.14
2019-02-05T23:46:41.852Z,-0.13
2019-02-05T23:48:49.248Z,-0.11
2019-02-05T23:50:56.708Z,-0.12
2019-02-05T23:53:04.212Z,-0.10
2019-02-05T23:55:13.703Z,-0.12
2019-02-05T23:57:21.239Z,-0.11
2019-02-05T23:59:28.680Z,-0.11
